Time;durP1;ratioP1;P1;durP2;ratioP2;P2;SDS_P1;SDS_P2;PMS_P1;PMS_P2;Temp;Humidity;BMP_temperature;BMP_pressure;BME280_temperature;BME280_humidity;BME280_pressure;Samples;Min_cycle;Max_cycle;Signal;HPM_P1;HPM_P2
2022/04/03 00:00:37;;;;;;;2.58;2.37;;;;;;;3.70;77.07;97711.12;1720333;82;21055;-62
2022/04/03 00:03:04;;;;;;;2.22;2.02;;;;;;;3.69;77.01;97707.36;1727730;82;21077;-63
2022/04/03 00:05:37;;;;;;;2.15;1.98;;;;;;;3.69;76.99;97706.87;1728000;82;20950;-61
2022/04/03 00:08:02;;;;;;;2.08;1.98;;;;;;;3.68;77.08;97710.48;1727358;82;20990;-63
2022/04/03 00:10:29;;;;;;;1.90;1.80;;;;;;;3.70;77.21;97711.12;1727892;82;20974;-64
2022/04/03 00:12:56;;;;;;;2.00;1.90;;;;;;;3.72;77.20;97712.28;1727305;83;20947;-63
2022/04/03 00:15:24;;;;;;;1.85;1.75;;;;;;;3.72;77.17;97714.91;1728208;82;20867;-61
2022/04/03 00:17:51;;;;;;;1.72;1.62;;;;;;;3.69;77.22;97722.66;1727494;82;21300;-63
2022/04/03 00:20:19;;;;;;;1.67;1.57;;;;;;;3.68;77.38;97726.26;1727476;82;20899;-62
2022/04/03 00:22:48;;;;;;;2.87;2.00;;;;;;;3.68;77.35;97724.94;1727575;82;20994;-63
2022/04/03 00:25:17;;;;;;;1.80;1.70;;;;;;;3.69;77.39;97727.91;1734086;81;21029;-63
2022/04/03 00:27:46;;;;;;;1.70;1.60;;;;;;;3.67;77.35;97722.01;1735747;82;21610;-64
2022/04/03 00:30:13;;;;;;;1.62;1.45;;;;;;;3.68;77.26;97726.26;1735865;82;21940;-63
2022/04/03 00:32:41;;;;;;;1.92;1.65;;;;;;;3.63;77.35;97725.95;1736033;82;20875;-62
2022/04/03 00:35:09;;;;;;;2.08;1.90;;;;;;;3.58;77.57;97730.06;1735945;82;20982;-64
2022/04/03 00:37:36;;;;;;;1.80;1.70;;;;;;;3.55;77.99;97728.59;1735691;82;21540;-63
2022/04/03 00:40:06;;;;;;;1.82;1.50;;;;;;;3.56;77.76;97726.80;1735562;82;20978;-63
2022/04/03 00:42:35;;;;;;;1.50;1.40;;;;;;;3.53;78.19;97722.69;1726684;82;21240;-63
2022/04/03 00:45:05;;;;;;;1.90;1.80;;;;;;;3.53;78.88;97720.06;1736001;82;21029;-63
2022/04/03 00:47:32;;;;;;;1.60;1.50;;;;;;;3.56;79.28;97716.27;1735977;82;21040;-62
2022/04/03 00:50:00;;;;;;;1.95;1.80;;;;;;;3.55;79.20;97718.08;1735184;82;20966;-62
2022/04/03 00:52:27;;;;;;;1.70;1.60;;;;;;;3.55;78.97;97725.97;1735887;82;20939;-62
2022/04/03 00:54:55;;;;;;;1.50;1.40;;;;;;;3.55;78.89;97719.39;1735812;82;21223;-62
2022/04/03 00:57:23;;;;;;;1.60;1.50;;;;;;;3.56;79.57;97724.98;1735734;82;21445;-63
2022/04/03 00:59:50;;;;;;;1.47;1.37;;;;;;;3.53;80.12;97722.69;1735732;82;20942;-64
2022/04/03 01:02:17;;;;;;;1.50;1.40;;;;;;;3.54;80.99;97724.83;1715720;82;21010;-62
2022/04/03 01:04:44;;;;;;;1.72;1.62;;;;;;;3.56;81.33;97729.42;1735712;82;20875;-64
2022/04/03 01:07:12;;;;;;;1.70;1.60;;;;;;;3.55;80.99;97725.14;1735920;82;21324;-63
2022/04/03 01:09:41;;;;;;;2.72;1.70;;;;;;;3.52;80.97;97731.56;1702891;83;20946;-64
2022/04/03 01:12:11;;;;;;;1.75;1.65;;;;;;;3.51;81.13;97733.05;1697594;84;20945;-62
2022/04/03 01:14:42;;;;;;;1.85;1.75;;;;;;;3.51;81.35;97728.63;1673996;85;20939;-64
2022/04/03 01:17:13;;;;;;;2.50;2.05;;;;;;;3.48;82.60;97726.81;1700395;84;21326;-65
2022/04/03 01:19:41;;;;;;;1.82;1.72;;;;;;;3.42;82.17;97728.30;1689708;84;21815;-63
2022/04/03 01:22:08;;;;;;;3.90;2.10;;;;;;;3.36;81.95;97726.36;1682445;85;21003;-64
2022/04/03 01:24:35;;;;;;;2.50;2.30;;;;;;;3.35;82.02;97726.51;1697500;83;21001;-65
2022/04/03 01:27:04;;;;;;;2.70;2.50;;;;;;;3.33;81.83;97719.29;1693610;84;21091;-63
2022/04/03 01:29:33;;;;;;;2.60;2.40;;;;;;;3.36;81.42;97722.91;1694309;84;20989;-65
2022/04/03 01:32:00;;;;;;;2.70;2.50;;;;;;;3.35;81.08;97723.39;1693668;84;21211;-62
2022/04/03 01:34:30;;;;;;;5.15;2.20;;;;;;;3.34;81.01;97720.91;1694060;84;21654;-64
2022/04/03 01:36:57;;;;;;;2.33;2.12;;;;;;;3.31;81.13;97718.12;1691491;84;20918;-62
2022/04/03 01:39:25;;;;;;;2.67;2.47;;;;;;;3.26;81.35;97727.00;1694234;84;20934;-64
2022/04/03 01:41:52;;;;;;;2.60;2.40;;;;;;;3.21;81.42;97723.27;1694483;84;20918;-63
2022/04/03 01:44:20;;;;;;;2.10;1.82;;;;;;;3.18;81.73;97730.95;1690767;84;21218;-62
2022/04/03 01:46:47;;;;;;;2.20;2.00;;;;;;;3.17;82.44;97722.77;1691590;84;20990;-64
2022/04/03 01:49:14;;;;;;;2.47;2.27;;;;;;;3.14;82.97;97728.34;1694188;84;21488;-64
2022/04/03 01:51:42;;;;;;;2.25;2.12;;;;;;;3.10;83.41;97729.68;1694427;84;20955;-64
2022/04/03 01:54:09;;;;;;;2.30;2.10;;;;;;;3.05;83.24;97730.15;1693784;84;21062;-62
2022/04/03 01:56:37;;;;;;;1.75;1.65;;;;;;;3.01;83.10;97734.11;1680580;84;21206;-64
2022/04/03 01:59:05;;;;;;;2.22;2.08;;;;;;;3.01;82.97;97734.11;1694291;84;21535;-63
2022/04/03 02:01:34;;;;;;;2.30;2.10;;;;;;;2.98;82.73;97734.43;1694079;84;20998;-64
2022/04/03 02:04:02;;;;;;;2.30;2.10;;;;;;;2.98;83.44;97740.17;1693823;84;20949;-62
2022/04/03 02:06:31;;;;;;;2.00;1.90;;;;;;;2.98;83.23;97731.80;1691780;84;21516;-62
2022/04/03 02:09:01;;;;;;;2.10;1.90;;;;;;;2.99;83.62;97727.38;1693372;84;21858;-61
2022/04/03 02:11:28;;;;;;;2.22;2.02;;;;;;;2.98;83.96;97732.29;1694153;84;21511;-63
2022/04/03 02:13:56;;;;;;;2.50;2.30;;;;;;;2.96;84.18;97734.27;1694331;84;21021;-63
2022/04/03 02:16:24;;;;;;;1.98;1.87;;;;;;;2.96;84.11;97735.58;1688480;84;21014;-63
2022/04/03 02:18:51;;;;;;;2.35;2.15;;;;;;;2.94;83.91;97734.94;1694339;84;20863;-61
2022/04/03 02:21:18;;;;;;;2.17;1.98;;;;;;;2.92;84.01;97736.39;1694173;84;21249;-64
2022/04/03 02:23:46;;;;;;;2.45;2.25;;;;;;;2.91;83.93;97742.66;1694325;84;20969;-63
2022/04/03 02:26:13;;;;;;;1.82;1.72;;;;;;;2.93;84.05;97739.36;1693384;83;20890;-64
2022/04/03 02:28:40;;;;;;;2.15;1.98;;;;;;;2.93;84.06;97745.92;1694291;84;20991;-63
2022/04/03 02:31:07;;;;;;;2.35;2.15;;;;;;;2.88;85.81;97744.77;1694479;84;20978;-62
2022/04/03 02:33:36;;;;;;;2.37;2.17;;;;;;;2.88;86.61;97746.09;1693788;84;21417;-63
2022/04/03 02:36:04;;;;;;;2.67;2.00;;;;;;;2.86;87.70;97749.38;1693853;84;20985;-61
2022/04/03 02:38:33;;;;;;;2.22;2.02;;;;;;;2.85;87.69;97747.72;1694123;84;20991;-63
2022/04/03 02:41:00;;;;;;;2.37;2.17;;;;;;;2.82;87.46;97752.81;1694342;84;20938;-64
2022/04/03 02:43:28;;;;;;;2.15;1.90;;;;;;;2.83;87.55;97753.64;1694255;84;20985;-63
2022/04/03 02:45:55;;;;;;;2.05;1.95;;;;;;;2.84;87.51;97746.89;1691597;84;21257;-62
2022/04/03 02:48:22;;;;;;;1.92;1.82;;;;;;;2.84;87.47;97746.09;1693398;84;20894;-64
2022/04/03 02:50:51;;;;;;;2.12;2.00;;;;;;;2.83;87.53;97742.64;1694418;84;21428;-66
2022/04/03 02:53:19;;;;;;;2.37;2.17;;;;;;;2.84;87.38;97744.78;1693972;84;21047;-64
2022/04/03 02:55:46;;;;;;;2.72;2.50;;;;;;;2.83;86.52;97741.33;1693853;84;21013;-62
2022/04/03 02:58:15;;;;;;;2.55;2.35;;;;;;;2.82;85.94;97743.62;1693608;84;21461;-62
2022/04/03 03:00:43;;;;;;;3.35;2.35;;;;;;;2.82;85.52;97743.62;1669196;85;20908;-63
2022/04/03 03:03:10;;;;;;;2.70;2.30;;;;;;;2.84;85.19;97751.35;1694425;84;21472;-64
2022/04/03 03:05:42;;;;;;;2.12;2.02;;;;;;;2.85;84.89;97753.80;1692847;84;21018;-63
2022/04/03 03:08:11;;;;;;;3.02;2.08;;;;;;;2.86;84.45;97755.45;1684625;84;20988;-65
2022/04/03 03:10:38;;;;;;;1.90;1.80;;;;;;;2.78;85.67;97756.76;1675619;84;21848;-63
2022/04/03 03:13:06;;;;;;;2.27;1.85;;;;;;;2.77;86.84;97766.09;1694236;84;21607;-63
2022/04/03 03:15:34;;;;;;;2.22;2.02;;;;;;;2.75;87.77;97761.02;1693693;84;20981;-63
2022/04/03 03:18:02;;;;;;;2.00;1.90;;;;;;;6.25;93.76;97752.59;1694193;84;20942;-63
2022/04/03 03:20:31;;;;;;;1.87;1.77;;;;;;;10.08;84.40;97735.50;1694271;84;20982;-63
2022/04/03 03:23:00;;;;;;;2.10;1.90;;;;;;;7.66;80.14;97737.98;1694218;84;21265;-63
2022/04/03 03:25:28;;;;;;;2.85;2.10;;;;;;;7.14;81.78;97743.69;1705161;83;21064;-64
2022/04/03 03:27:56;;;;;;;2.17;1.98;;;;;;;7.30;81.21;97747.36;1753373;81;21532;-64
2022/04/03 03:30:24;;;;;;;2.47;1.85;;;;;;;7.36;80.78;97751.08;1756143;80;20891;-63
2022/04/03 03:32:52;;;;;;;1.98;1.85;;;;;;;6.39;82.75;97762.32;1756382;81;20856;-63
2022/04/03 03:35:19;;;;;;;2.45;2.25;;;;;;;5.51;87.57;97764.43;1755706;81;21229;-62
2022/04/03 03:37:47;;;;;;;2.30;2.10;;;;;;;5.46;88.14;97762.00;1744861;81;21488;-64
2022/04/03 03:40:14;;;;;;;2.08;1.87;;;;;;;5.35;89.27;97771.66;1755886;81;20887;-62
2022/04/03 03:42:42;;;;;;;1.87;1.77;;;;;;;5.40;91.74;97774.58;1755821;80;21460;-63
2022/04/03 03:45:12;;;;;;;2.08;1.87;;;;;;;5.45;91.97;97773.05;1756476;81;20986;-64
2022/04/03 03:47:40;;;;;;;1.82;1.72;;;;;;;5.45;92.24;97770.41;1749641;81;21253;-61
2022/04/03 03:50:08;;;;;;;1.95;1.85;;;;;;;5.54;92.29;97773.80;1720776;83;20930;-65
2022/04/03 03:52:35;;;;;;;2.37;1.90;;;;;;;5.54;91.95;97773.80;1743884;81;21006;-63
2022/04/03 03:55:04;;;;;;;2.30;2.10;;;;;;;5.60;90.70;97766.50;1755787;81;20898;-64
2022/04/03 03:57:31;;;;;;;2.40;2.12;;;;;;;5.68;89.44;97770.88;1753419;81;20976;-64
2022/04/03 03:59:58;;;;;;;1.80;1.70;;;;;;;5.79;88.85;97771.75;1754848;81;21133;-64
2022/04/03 04:02:26;;;;;;;1.90;1.80;;;;;;;5.91;88.54;97775.10;1756389;81;21021;-63
2022/04/03 04:04:54;;;;;;;1.70;1.60;;;;;;;5.98;88.38;97778.64;1756283;81;20991;-64
2022/04/03 04:07:21;;;;;;;2.27;2.08;;;;;;;6.02;88.24;97779.91;1753502;81;20903;-65
2022/04/03 04:09:49;;;;;;;2.30;2.10;;;;;;;6.08;88.25;97783.14;1754853;81;20935;-64
2022/04/03 04:12:18;;;;;;;1.80;1.70;;;;;;;5.96;88.52;97784.61;1756520;81;21464;-64
2022/04/03 04:14:46;;;;;;;1.82;1.72;;;;;;;6.01;88.44;97783.56;1756146;81;21040;-64
2022/04/03 04:17:14;;;;;;;1.77;1.67;;;;;;;6.01;88.50;97786.70;1755333;81;21428;-62
2022/04/03 04:19:41;;;;;;;2.08;1.87;;;;;;;6.05;88.46;97793.23;1756421;81;21445;-64
2022/04/03 04:22:09;;;;;;;2.10;1.90;;;;;;;6.27;87.77;97798.11;1755666;81;21527;-63
2022/04/03 04:24:36;;;;;;;2.10;1.90;;;;;;;6.32;87.19;97799.20;1755486;81;21304;-65
2022/04/03 04:27:04;;;;;;;2.42;2.22;;;;;;;6.12;87.27;97806.87;1752010;81;21005;-63
2022/04/03 04:29:31;;;;;;;1.82;1.70;;;;;;;5.93;87.85;97797.34;1754156;81;20988;-64
2022/04/03 04:32:00;;;;;;;2.67;2.17;;;;;;;5.83;87.97;97806.00;1756411;81;20985;-64
2022/04/03 04:34:28;;;;;;;2.37;2.17;;;;;;;5.72;86.59;97803.30;1756753;81;20942;-64
2022/04/03 04:36:56;;;;;;;2.33;2.12;;;;;;;5.68;84.39;97803.84;1753831;81;21268;-62
2022/04/03 04:39:23;;;;;;;2.50;1.75;;;;;;;5.57;90.18;97813.84;1755339;81;20883;-64
2022/04/03 04:41:52;;;;;;;2.27;2.17;;;;;;;5.60;87.72;97814.77;1756013;81;20915;-64
2022/04/03 04:44:19;;;;;;;2.47;1.67;;;;;;;23.99;63.86;97761.36;1756770;81;20962;-65
2022/04/03 04:46:48;;;;;;;2.45;2.00;;;;;;;15.22;72.08;97784.73;1754976;81;21654;-64
2022/04/03 04:49:16;;;;;;;2.22;2.02;;;;;;;14.00;73.22;97796.61;1754917;81;21297;-65
2022/04/03 04:51:45;;;;;;;2.30;1.95;;;;;;;13.92;72.78;97796.95;1756424;81;20851;-63
2022/04/03 04:54:12;;;;;;;2.30;2.10;;;;;;;13.87;70.53;97800.84;1757254;81;20898;-65
2022/04/03 04:56:41;;;;;;;2.27;2.08;;;;;;;14.05;60.98;97805.54;1707707;83;20994;-62
2022/04/03 04:59:08;;;;;;;2.22;1.77;;;;;;;13.89;60.22;97807.59;1754513;81;20903;-64
2022/04/03 05:01:37;;;;;;;2.33;2.12;;;;;;;13.67;60.12;97807.02;1756184;80;21499;-63
2022/04/03 05:04:04;;;;;;;2.33;2.12;;;;;;;13.67;59.74;97802.48;1742858;81;21040;-62
2022/04/03 05:06:32;;;;;;;3.17;2.40;;;;;;;13.82;59.14;97810.88;1755901;81;20976;-63
2022/04/03 05:08:59;;;;;;;2.55;2.35;;;;;;;12.28;63.50;97817.32;1754367;81;20891;-62
2022/04/03 05:11:26;;;;;;;2.30;2.10;;;;;;;12.22;62.67;97823.56;1755997;81;21013;-65
2022/04/03 05:13:54;;;;;;;2.35;2.15;;;;;;;12.49;61.46;97818.73;1756013;81;21147;-65
2022/04/03 05:16:22;;;;;;;2.50;2.17;;;;;;;12.39;61.15;97825.93;1755818;81;20883;-63
2022/04/03 05:18:51;;;;;;;2.40;2.20;;;;;;;12.48;60.72;97831.80;1753621;81;20985;-65
2022/04/03 05:21:18;;;;;;;2.40;2.20;;;;;;;12.54;60.34;97828.22;1754480;81;20930;-64
2022/04/03 05:23:45;;;;;;;3.35;3.05;;;;;;;12.68;59.82;97831.56;1752030;81;20863;-65
2022/04/03 05:26:12;;;;;;;2.75;2.52;;;;;;;12.82;59.18;97834.38;1747683;80;21509;-65
2022/04/03 05:28:41;;;;;;;2.52;2.33;;;;;;;12.92;58.50;97833.33;1722850;83;20990;-65
2022/04/03 05:31:08;;;;;;;2.40;2.20;;;;;;;13.03;57.24;97839.77;1727389;82;21557;-63
2022/04/03 05:33:36;;;;;;;3.02;2.15;;;;;;;12.98;57.00;97838.56;1727578;82;21077;-63
2022/04/03 05:36:04;;;;;;;1.80;1.70;;;;;;;12.77;57.58;97835.58;1727792;82;20922;-65
2022/04/03 05:38:32;;;;;;;2.22;2.05;;;;;;;12.61;57.90;97841.50;1727765;82;21275;-63
2022/04/03 05:40:59;;;;;;;1.85;1.75;;;;;;;12.84;57.45;97850.98;1727805;82;20974;-64
2022/04/03 05:43:26;;;;;;;2.75;1.90;;;;;;;12.87;57.19;97855.36;1727745;82;21024;-65
2022/04/03 05:45:54;;;;;;;2.35;2.15;;;;;;;12.80;57.12;97864.48;1727150;82;20899;-65
2022/04/03 05:48:21;;;;;;;2.22;2.02;;;;;;;12.86;56.82;97866.24;1727682;82;20926;-64
2022/04/03 05:50:50;;;;;;;2.25;2.08;;;;;;;12.75;56.76;97861.13;1727619;82;21222;-62
2022/04/03 05:53:17;;;;;;;2.47;2.27;;;;;;;12.65;100.00;97877.35;1727412;82;21033;-65
2022/04/03 05:55:45;;;;;;;3.00;2.80;;;;;;;13.15;64.23;97872.69;1727915;82;21008;-65
2022/04/03 05:58:13;;;;;;;3.30;3.00;;;;;;;13.44;56.57;97872.72;1727971;82;20879;-65
2022/04/03 06:00:41;;;;;;;3.00;2.70;;;;;;;13.23;59.09;97882.55;1727325;82;20993;-65
2022/04/03 06:03:08;;;;;;;2.92;2.72;;;;;;;13.33;58.44;97876.15;1727773;82;21256;-65
2022/04/03 06:05:35;;;;;;;2.50;2.30;;;;;;;13.10;58.36;97874.71;1727628;82;20891;-65
2022/04/03 06:08:04;;;;;;;2.75;2.47;;;;;;;12.99;58.60;97878.09;1728047;82;20942;-64
2022/04/03 06:10:31;;;;;;;2.30;2.10;;;;;;;12.85;57.64;97877.97;1727688;82;20966;-63
2022/04/03 06:13:03;;;;;;;1.92;1.82;;;;;;;12.76;56.50;97883.30;1727941;82;21002;-63
2022/04/03 06:15:43;;;;;;;2.98;2.77;;;;;;;12.63;56.74;97886.11;1724179;82;21162;-65
2022/04/03 06:18:13;;;;;;;2.85;2.65;;;;;;;12.58;56.52;97886.77;1665120;85;21533;-66
2022/04/03 06:20:40;;;;;;;2.22;2.02;;;;;;;12.46;56.53;97892.55;1681974;84;20938;-64
2022/04/03 06:23:15;;;;;;;2.35;2.15;;;;;;;12.54;56.56;97894.12;1692359;84;21014;-63
2022/04/03 06:25:43;;;;;;;2.12;1.92;;;;;;;12.59;56.46;97897.72;1681328;84;21519;-68
2022/04/03 06:28:10;;;;;;;1.80;1.70;;;;;;;12.70;56.28;97890.84;1718117;82;21473;-63
2022/04/03 06:30:38;;;;;;;1.98;1.87;;;;;;;12.80;55.80;97895.96;1743830;81;21009;-63
2022/04/03 06:33:05;;;;;;;2.65;2.20;;;;;;;12.86;55.53;97903.60;1755851;81;20891;-63
2022/04/03 06:35:32;;;;;;;3.10;1.95;;;;;;;12.78;55.14;97903.38;1756164;80;21017;-63
2022/04/03 06:38:02;;;;;;;1.80;1.70;;;;;;;12.68;55.06;97908.94;1756326;81;20903;-66
2022/04/03 06:40:33;;;;;;;2.17;2.00;;;;;;;12.59;55.28;97908.39;1754599;81;21567;-63
2022/04/03 06:43:01;;;;;;;2.22;2.02;;;;;;;12.76;55.12;97908.64;1751486;81;20978;-61
2022/04/03 06:45:28;;;;;;;3.10;2.37;;;;;;;12.87;55.09;97912.73;1756245;81;20966;-65
2022/04/03 06:47:57;;;;;;;2.30;2.10;;;;;;;12.95;55.00;97912.95;1755266;81;20919;-64
2022/04/03 06:50:27;;;;;;;3.85;3.55;;;;;;;12.94;55.97;97912.14;1754155;81;21515;-62
2022/04/03 06:52:54;;;;;;;2.70;2.50;;;;;;;12.91;55.22;97917.09;1721649;82;21238;-64
2022/04/03 06:55:21;;;;;;;3.12;2.83;;;;;;;12.88;60.92;97922.88;1752955;81;20891;-62
2022/04/03 06:57:48;;;;;;;2.37;2.17;;;;;;;12.87;57.46;97920.75;1755328;81;20970;-64
2022/04/03 07:00:17;;;;;;;2.75;2.15;;;;;;;13.00;55.55;97923.27;1754355;81;20943;-63
2022/04/03 07:02:44;;;;;;;2.87;2.60;;;;;;;13.04;55.02;97923.62;1747928;80;21087;-62
2022/04/03 07:05:12;;;;;;;2.15;2.00;;;;;;;13.12;54.48;97920.68;1753776;81;21311;-65
2022/04/03 07:07:39;;;;;;;2.67;2.47;;;;;;;13.15;54.02;97924.76;1750632;81;20954;-66
2022/04/03 07:10:09;;;;;;;2.30;2.10;;;;;;;13.04;53.91;97927.63;1755074;81;21492;-63
2022/04/03 07:12:36;;;;;;;2.77;2.58;;;;;;;12.93;53.69;97927.05;1754896;81;21581;-63
2022/04/03 07:15:11;;;;;;;2.87;2.25;;;;;;;12.77;55.08;97932.45;1752516;81;21238;-66
2022/04/03 07:17:36;;;;;;;2.60;2.40;;;;;;;12.77;54.56;97936.97;1752573;81;21286;-63
2022/04/03 07:20:06;;;;;;;2.50;2.27;;;;;;;12.83;54.05;97934.73;1756238;81;20887;-64
2022/04/03 07:22:33;;;;;;;2.35;2.15;;;;;;;12.84;53.65;97937.20;1755635;81;20993;-64
2022/04/03 07:25:01;;;;;;;2.77;2.58;;;;;;;12.87;53.81;97935.42;1755447;81;20859;-63
2022/04/03 07:27:29;;;;;;;3.20;2.42;;;;;;;13.02;53.59;97940.38;1756504;81;20911;-66
2022/04/03 07:29:56;;;;;;;2.52;2.30;;;;;;;13.00;53.68;97944.63;1755604;81;21249;-65
2022/04/03 07:32:23;;;;;;;2.15;1.98;;;;;;;12.98;53.42;97948.55;1755088;81;20851;-65
2022/04/03 07:34:50;;;;;;;3.47;3.12;;;;;;;12.89;53.53;97952.54;1754789;81;21006;-64
2022/04/03 07:37:17;;;;;;;3.05;2.70;;;;;;;12.66;66.48;97949.19;1756667;80;20998;-66
2022/04/03 07:39:45;;;;;;;2.92;2.62;;;;;;;12.83;99.51;97950.74;1755700;81;20943;-65
2022/04/03 07:42:13;;;;;;;3.33;2.90;;;;;;;12.84;62.68;97951.05;1754464;81;21904;-64
2022/04/03 07:44:41;;;;;;;2.92;2.72;;;;;;;12.89;60.47;97948.53;1754810;81;21038;-62
2022/04/03 07:47:09;;;;;;;4.15;3.12;;;;;;;12.97;57.88;97953.58;1754861;81;21057;-65
2022/04/03 07:49:36;;;;;;;2.58;2.37;;;;;;;13.03;56.81;97958.05;1754808;81;20930;-65
2022/04/03 07:52:04;;;;;;;2.90;2.60;;;;;;;13.03;56.54;97960.17;1755225;81;20926;-66
2022/04/03 07:54:32;;;;;;;2.75;2.55;;;;;;;13.02;56.69;97959.07;1753128;81;21587;-67
2022/04/03 07:56:59;;;;;;;2.52;2.33;;;;;;;13.07;57.58;97962.43;1755471;80;20986;-64
2022/04/03 07:59:26;;;;;;;2.67;2.33;;;;;;;13.11;55.48;97961.78;1755965;81;21061;-69
2022/04/03 08:01:55;;;;;;;3.08;2.55;;;;;;;12.97;55.39;97962.92;1674908;84;21451;-67
2022/04/03 08:04:22;;;;;;;2.67;2.47;;;;;;;13.06;55.16;97969.62;1705381;83;20910;-66
2022/04/03 08:06:49;;;;;;;2.90;2.30;;;;;;;12.94;55.33;97964.70;1718678;83;21260;-63
2022/04/03 08:09:16;;;;;;;2.50;2.30;;;;;;;12.78;56.32;97967.94;1753811;81;21507;-64
2022/04/03 08:11:44;;;;;;;2.75;2.45;;;;;;;12.79;56.56;97965.06;1756452;81;21417;-64
2022/04/03 08:14:11;;;;;;;2.35;2.15;;;;;;;12.81;56.23;97970.17;1755925;81;21023;-65
2022/04/03 08:16:38;;;;;;;2.60;2.40;;;;;;;12.89;56.27;97969.88;1750379;81;21052;-66
2022/04/03 08:19:07;;;;;;;4.45;3.33;;;;;;;12.94;56.06;97967.37;1750270;80;20958;-62
2022/04/03 08:21:34;;;;;;;4.47;3.80;;;;;;;13.08;55.84;97967.56;1742470;80;20957;-66
2022/04/03 08:24:01;;;;;;;4.05;3.65;;;;;;;13.30;55.47;97968.73;1738202;80;20957;-66
2022/04/03 08:26:29;;;;;;;3.55;3.25;;;;;;;13.51;55.12;97976.28;1747876;80;21515;-67
2022/04/03 08:28:56;;;;;;;2.67;2.47;;;;;;;13.73;55.03;97981.15;1732323;80;20969;-65
2022/04/03 08:31:24;;;;;;;2.52;2.33;;;;;;;14.12;54.62;97978.73;1729075;80;22359;-66
2022/04/03 08:33:53;;;;;;;3.55;2.60;;;;;;;14.40;54.25;97976.78;1738876;80;20894;-65
2022/04/03 08:36:20;;;;;;;2.30;2.10;;;;;;;14.49;53.84;97975.92;1738175;80;21133;-65
2022/04/03 08:38:50;;;;;;;3.02;2.72;;;;;;;14.66;53.29;97979.02;1734315;81;21108;-65
2022/04/03 08:41:17;;;;;;;2.60;2.40;;;;;;;14.58;53.27;97984.70;1735873;80;21029;-65
2022/04/03 08:43:47;;;;;;;2.15;2.05;;;;;;;14.60;51.70;97986.63;1738088;80;21245;-65
2022/04/03 08:46:15;;;;;;;2.52;2.33;;;;;;;14.70;51.21;97985.52;1738382;80;21437;-64
2022/04/03 08:48:44;;;;;;;2.45;2.25;;;;;;;14.61;50.70;97989.60;1755030;81;20997;-65
2022/04/03 08:51:12;;;;;;;3.15;2.77;;;;;;;14.56;50.50;97983.31;1755890;81;21098;-67
2022/04/03 08:53:39;;;;;;;3.00;2.70;;;;;;;14.51;50.44;97986.69;1744099;81;21021;-65
2022/04/03 08:56:07;;;;;;;2.45;2.08;;;;;;;14.53;50.30;97993.95;1755470;81;21242;-65
2022/04/03 08:58:34;;;;;;;3.25;2.47;;;;;;;14.56;49.90;97988.66;1756057;81;20994;-66
2022/04/03 09:01:01;;;;;;;2.58;2.37;;;;;;;14.53;49.95;97993.13;1754766;81;20943;-67
2022/04/03 09:03:30;;;;;;;2.50;2.30;;;;;;;14.57;49.70;97995.66;1754225;81;21464;-64
2022/04/03 09:06:17;;;;;;;3.50;2.25;;;;;;;14.59;49.27;97993.04;1755146;81;21025;-66
2022/04/03 09:08:44;;;;;;;2.45;2.25;;;;;;;14.53;48.99;98003.32;1756506;81;21425;-63
2022/04/03 09:11:12;;;;;;;2.10;1.92;;;;;;;14.62;49.19;98000.61;1755880;81;20954;-66
2022/04/03 09:13:41;;;;;;;2.47;2.17;;;;;;;14.56;48.60;97993.50;1699859;82;20927;-65
2022/04/03 09:16:10;;;;;;;2.12;1.92;;;;;;;14.43;48.34;98003.08;1737053;80;21052;-68
2022/04/03 09:18:51;;;;;;;2.67;2.37;;;;;;;14.43;48.56;98005.75;1732234;80;21574;-64
2022/04/03 09:21:22;;;;;;;2.45;2.25;;;;;;;14.42;47.86;98005.96;1731300;80;21234;-66
2022/04/03 09:24:11;;;;;;;3.10;2.33;;;;;;;14.40;47.74;98006.20;1731669;80;21499;-65
2022/04/03 09:26:44;;;;;;;3.17;2.50;;;;;;;14.07;47.68;98012.03;1730328;80;21002;-64
2022/04/03 09:29:14;;;;;;;3.15;2.30;;;;;;;14.20;48.60;98006.48;1730917;80;21044;-65
2022/04/03 09:31:42;;;;;;;2.85;2.47;;;;;;;14.34;48.61;98007.66;1735403;80;21018;-64
2022/04/03 09:34:18;;;;;;;3.72;2.87;;;;;;;14.45;48.64;98018.38;1736712;80;21895;-64
2022/04/03 09:37:00;;;;;;;3.20;2.90;;;;;;;14.67;48.10;98014.11;1736783;80;20863;-63
2022/04/03 09:39:30;;;;;;;3.30;2.35;;;;;;;14.62;48.14;98022.54;1753959;81;20998;-66
2022/04/03 09:42:03;;;;;;;2.55;2.35;;;;;;;15.00;47.19;98016.73;1755484;81;21492;-66
2022/04/03 09:44:37;;;;;;;2.52;2.33;;;;;;;14.96;47.03;98024.43;1751941;81;20975;-68
2022/04/03 09:47:33;;;;;;;2.90;2.67;;;;;;;14.95;47.45;98016.61;1753629;81;21256;-67
2022/04/03 09:50:03;;;;;;;2.87;2.67;;;;;;;14.99;46.81;98021.81;1752348;81;21065;-64
2022/04/03 09:52:45;;;;;;;3.17;2.87;;;;;;;15.04;46.94;98020.06;1756607;81;21011;-63
2022/04/03 09:55:19;;;;;;;3.20;2.70;;;;;;;15.17;46.45;98027.04;1754758;81;21082;-67
2022/04/03 09:57:50;;;;;;;2.85;2.62;;;;;;;15.27;45.82;98024.58;1753787;81;21050;-66
2022/04/03 10:00:33;;;;;;;2.90;2.60;;;;;;;15.44;45.00;98021.45;1750139;81;21258;-64
2022/04/03 10:03:02;;;;;;;4.08;3.00;;;;;;;15.72;43.91;98023.41;1754370;81;20950;-64
2022/04/03 10:05:30;;;;;;;3.85;2.80;;;;;;;15.84;42.75;98029.02;1754163;81;21531;-64
2022/04/03 10:08:00;;;;;;;3.87;2.60;;;;;;;16.01;41.91;98030.40;1755712;81;21005;-67
2022/04/03 10:10:28;;;;;;;3.45;2.42;;;;;;;16.23;40.17;98038.59;1752685;81;21017;-66
2022/04/03 10:12:58;;;;;;;3.27;2.15;;;;;;;16.35;39.55;98032.63;1752871;81;21492;-68
2022/04/03 10:15:26;;;;;;;2.58;2.37;;;;;;;16.54;37.96;98031.39;1754477;81;20886;-68
2022/04/03 10:17:54;;;;;;;2.65;2.45;;;;;;;16.71;37.76;98031.41;1755222;81;21503;-65
2022/04/03 10:20:30;;;;;;;2.52;2.27;;;;;;;16.84;36.84;98030.53;1751249;81;20959;-65
2022/04/03 10:23:02;;;;;;;2.58;2.33;;;;;;;16.99;35.95;98038.85;1755113;81;21049;-66
2022/04/03 10:25:36;;;;;;;4.30;3.90;;;;;;;17.04;35.94;98041.61;1756432;81;21004;-66
2022/04/03 10:28:05;;;;;;;3.60;2.50;;;;;;;17.22;35.74;98036.49;1759159;80;20862;-67
2022/04/03 10:30:44;;;;;;;2.77;2.50;;;;;;;17.37;34.80;98038.04;1764707;80;21741;-65
2022/04/03 10:33:20;;;;;;;3.20;2.02;;;;;;;17.36;34.91;98036.96;1764438;80;20958;-66
2022/04/03 10:36:09;;;;;;;2.60;2.40;;;;;;;17.39;33.42;98043.19;1753775;81;21531;-66
2022/04/03 10:38:45;;;;;;;2.75;2.55;;;;;;;17.53;32.72;98037.22;1762307;80;21860;-67
2022/04/03 10:41:34;;;;;;;2.40;2.20;;;;;;;17.73;32.43;98042.84;1764275;80;20946;-65
2022/04/03 10:44:22;;;;;;;3.00;2.80;;;;;;;17.91;31.63;98040.92;1757421;80;20933;-66
2022/04/03 10:47:10;;;;;;;3.50;2.50;;;;;;;17.99;31.40;98044.52;1764601;80;20946;-65
2022/04/03 10:49:43;;;;;;;3.02;2.50;;;;;;;18.07;30.42;98046.20;1764435;80;21049;-64
2022/04/03 10:52:29;;;;;;;2.67;2.42;;;;;;;17.91;30.27;98041.71;1764458;80;21134;-65
2022/04/03 10:55:00;;;;;;;3.02;2.72;;;;;;;18.03;30.24;98041.06;1735192;80;20891;-64
2022/04/03 10:57:45;;;;;;;2.65;2.45;;;;;;;18.24;29.81;98048.29;1764782;80;20961;-67
2022/04/03 11:00:21;;;;;;;2.27;2.08;;;;;;;18.03;29.77;98048.31;1764777;80;21479;-66
2022/04/03 11:02:59;;;;;;;2.55;2.35;;;;;;;17.89;29.65;98042.50;1754277;80;21051;-65
2022/04/03 11:05:32;;;;;;;2.75;2.33;;;;;;;17.83;29.68;98044.31;1761913;80;21334;-67
2022/04/03 11:08:05;;;;;;;2.42;2.22;;;;;;;17.99;29.71;98050.69;1764015;80;20894;-64
2022/04/03 11:11:08;;;;;;;2.85;2.52;;;;;;;18.23;29.14;98050.69;1727491;83;20994;-66
2022/04/03 11:13:39;;;;;;;2.45;2.22;;;;;;;18.29;29.19;98055.07;1727289;83;20992;-66
2022/04/03 11:16:09;;;;;;;2.00;1.90;;;;;;;18.43;28.91;98056.83;1709008;84;20904;-66
2022/04/03 11:18:49;;;;;;;2.35;1.90;;;;;;;18.15;27.60;98050.32;1715981;83;21555;-67
2022/04/03 11:21:31;;;;;;;2.30;2.10;;;;;;;17.86;27.63;98055.10;1730948;82;20978;-66
2022/04/03 11:24:06;;;;;;;2.10;1.80;;;;;;;17.46;27.79;98055.38;1689895;84;21070;-67
2022/04/03 11:26:34;;;;;;;2.25;2.02;;;;;;;17.29;28.01;98055.41;1687101;84;21006;-67
2022/04/03 11:29:01;;;;;;;2.50;2.30;;;;;;;17.15;28.51;98064.86;1706794;83;20914;-66
2022/04/03 11:31:28;;;;;;;2.05;1.85;;;;;;;17.17;28.64;98068.66;1692352;84;21252;-67
2022/04/03 11:33:56;;;;;;;2.12;2.02;;;;;;;16.99;28.87;98071.09;1694156;84;20891;-66
2022/04/03 11:36:30;;;;;;;2.33;1.98;;;;;;;16.98;29.00;98070.79;1663074;84;20990;-66
2022/04/03 11:39:00;;;;;;;3.52;2.62;;;;;;;17.08;28.94;98070.95;1694109;84;21049;-68
2022/04/03 11:41:34;;;;;;;3.50;2.10;;;;;;;17.14;28.96;98075.34;1692467;84;21029;-67
2022/04/03 11:44:17;;;;;;;1.92;1.72;;;;;;;17.02;29.14;98068.44;1686445;84;21898;-67
2022/04/03 11:46:48;;;;;;;2.00;1.77;;;;;;;17.05;29.28;98079.48;1693401;84;20944;-68